Time;durP1;ratioP1;P1;durP2;ratioP2;P2;SDS_P1;SDS_P2;PMS_P1;PMS_P2;Temp;Humidity;BMP_temperature;BMP_pressure;BME280_temperature;BME280_humidity;BME280_pressure;Samples;Min_cycle;Max_cycle;Signal;HPM_P1;HPM_P2
2022/05/19 00:01:01;;;;;;;24.83;14.60;;;;;;;17.89;76.54;101664.56;4974889;28;20019;-35
2022/05/19 00:03:33;;;;;;;21.92;14.88;;;;;;;17.92;76.50;101663.28;4992440;28;20039;-34
2022/05/19 00:06:00;;;;;;;25.33;14.73;;;;;;;17.98;76.56;101663.31;4990846;28;20098;-34
2022/05/19 00:08:26;;;;;;;33.13;14.23;;;;;;;17.96;76.66;101661.84;4990542;28;20019;-35
2022/05/19 00:10:52;;;;;;;27.50;15.25;;;;;;;18.02;76.33;101663.72;4991405;28;20034;-34
2022/05/19 00:13:17;;;;;;;24.85;15.10;;;;;;;18.04;75.95;101658.88;4972785;28;20027;-35
2022/05/19 00:15:43;;;;;;;26.00;14.40;;;;;;;18.03;76.27;101654.47;4990500;28;20034;-35
2022/05/19 00:18:08;;;;;;;30.75;14.25;;;;;;;18.02;76.33;101657.44;4990995;28;20034;-33
2022/05/19 00:20:33;;;;;;;25.58;14.80;;;;;;;18.06;76.19;101658.66;4990487;28;20054;-34
2022/05/19 00:22:59;;;;;;;27.60;15.75;;;;;;;17.99;76.37;101647.78;4990415;28;20382;-33
2022/05/19 00:25:24;;;;;;;29.60;14.27;;;;;;;17.97;76.55;101641.72;4990584;28;20254;-34
2022/05/19 00:27:49;;;;;;;23.90;15.30;;;;;;;18.03;76.68;101632.69;4989617;28;20027;-33
2022/05/19 00:30:15;;;;;;;23.50;14.73;;;;;;;17.96;76.81;101631.88;4989667;28;20049;-34
2022/05/19 00:32:40;;;;;;;26.25;16.40;;;;;;;18.00;76.82;101638.56;4990089;28;20062;-36
2022/05/19 00:35:06;;;;;;;25.90;15.80;;;;;;;17.97;76.86;101628.94;4990225;28;20062;-35
2022/05/19 00:37:31;;;;;;;31.02;15.45;;;;;;;17.97;76.88;101628.94;4990174;28;20039;-35
2022/05/19 00:39:57;;;;;;;25.83;15.57;;;;;;;18.00;76.91;101619.50;4990397;28;20085;-36
2022/05/19 00:45:07;;;;;;;29.42;16.70;;;;;;;17.99;77.04;101620.56;4991290;28;20050;-33
2022/05/19 00:47:39;;;;;;;28.30;17.67;;;;;;;17.90;77.66;101619.09;4991171;28;20066;-35
2022/05/19 00:50:07;;;;;;;28.13;16.23;;;;;;;17.90;77.84;101616.38;4956551;28;20129;-33
2022/05/19 00:52:39;;;;;;;28.85;17.15;;;;;;;17.89;78.17;101615.53;4990438;28;20094;-35
2022/05/19 00:55:09;;;;;;;30.23;16.50;;;;;;;17.95;77.94;101611.13;4973344;28;20241;-33
2022/05/19 00:57:38;;;;;;;36.97;18.00;;;;;;;17.89;78.28;101604.63;4989853;28;20062;-33
2022/05/19 01:00:11;;;;;;;30.13;17.45;;;;;;;17.89;78.44;101598.38;4990069;28;20527;-34
2022/05/19 01:02:40;;;;;;;28.00;16.23;;;;;;;17.88;78.62;101610.31;4973211;28;20073;-34
2022/05/19 01:05:33;;;;;;;28.33;16.77;;;;;;;17.90;78.69;101605.47;4973086;28;20034;-34
2022/05/19 01:08:19;;;;;;;30.30;17.08;;;;;;;17.92;78.67;101597.94;4970669;28;20103;-35
2022/05/19 01:10:45;;;;;;;34.78;17.15;;;;;;;17.93;78.99;101603.19;4989529;28;20042;-34
2022/05/19 01:13:11;;;;;;;37.47;17.80;;;;;;;17.90;79.30;101589.13;4972767;28;20027;-34
2022/05/19 01:15:39;;;;;;;27.58;17.48;;;;;;;17.95;79.00;101575.72;4989695;28;20045;-35
2022/05/19 01:18:05;;;;;;;34.25;19.05;;;;;;;17.94;79.20;101571.34;4971157;28;20022;-34
2022/05/19 01:20:30;;;;;;;31.42;17.98;;;;;;;17.98;79.10;101564.38;4988755;28;20023;-34
2022/05/19 01:23:06;;;;;;;37.47;19.00;;;;;;;17.96;79.09;101561.91;4972245;28;20027;-33
2022/05/19 01:25:37;;;;;;;29.63;18.38;;;;;;;17.94;79.22;101563.16;4972216;28;20035;-33
2022/05/19 01:28:02;;;;;;;35.50;20.20;;;;;;;17.91;79.68;101558.97;4993158;28;20034;-33
2022/05/19 01:30:28;;;;;;;35.40;20.23;;;;;;;17.87;79.83;101559.59;4993297;28;20035;-33
2022/05/19 01:32:54;;;;;;;35.72;20.30;;;;;;;17.87;80.14;101563.16;4990601;28;20027;-33
2022/05/19 01:35:20;;;;;;;37.70;20.05;;;;;;;17.89;80.09;101558.34;4991691;28;20022;-32
2022/05/19 01:37:45;;;;;;;40.13;20.52;;;;;;;17.95;79.90;101567.53;4998830;28;20026;-34
2022/05/19 01:40:40;;;;;;;35.05;19.15;;;;;;;18.01;79.83;101569.44;4992306;28;20070;-35
2022/05/19 01:43:13;;;;;;;30.45;19.77;;;;;;;17.98;79.89;101569.84;4990143;28;20054;-35
2022/05/19 01:45:51;;;;;;;31.20;19.45;;;;;;;17.96;79.96;101563.78;4992431;28;20018;-35
2022/05/19 01:48:24;;;;;;;35.78;20.60;;;;;;;18.00;80.16;101567.75;4975429;28;20041;-35
2022/05/19 01:50:50;;;;;;;39.60;21.33;;;;;;;17.94;80.12;101568.59;4992365;28;20069;-33
2022/05/19 01:53:35;;;;;;;33.45;19.80;;;;;;;18.00;79.89;101567.75;4966845;28;20034;-33
2022/05/19 01:56:15;;;;;;;30.92;20.02;;;;;;;18.03;79.90;101555.59;4993360;28;20041;-37
2022/05/19 01:58:51;;;;;;;28.90;19.42;;;;;;;18.04;79.81;101544.50;4974757;28;20027;-36
2022/05/19 02:01:18;;;;;;;32.70;21.05;;;;;;;18.04;79.87;101551.84;4975940;28;20062;-35
2022/05/19 02:03:53;;;;;;;32.85;19.38;;;;;;;18.05;80.14;101567.09;4993036;28;20055;-33
2022/05/19 02:06:27;;;;;;;31.95;22.13;;;;;;;18.02;80.52;101597.50;4974640;28;20034;-34
2022/05/19 02:08:55;;;;;;;34.78;20.77;;;;;;;18.12;80.10;101590.56;4979108;28;20061;-34
2022/05/19 02:11:36;;;;;;;36.30;19.83;;;;;;;18.18;79.89;101565.19;4992259;28;20027;-33
2022/05/19 02:14:07;;;;;;;42.13;21.95;;;;;;;18.05;80.53;101597.91;4992278;28;20082;-32
2022/05/19 02:16:33;;;;;;;37.50;21.98;;;;;;;18.02;81.19;101622.84;4992354;28;20023;-32
2022/05/19 02:18:59;;;;;;;52.75;25.67;;;;;;;18.07;82.49;101623.06;4989784;28;20086;-35
2022/05/19 02:21:25;;;;;;;53.42;26.95;;;;;;;17.78;85.77;101586.19;4985563;28;20046;-41
2022/05/19 02:23:50;;;;;;;51.85;30.33;;;;;;;17.54;89.27;101602.13;4963353;28;20027;-42
2022/05/19 02:26:15;;;;;;;51.63;29.90;;;;;;;17.32;90.87;101592.47;4975526;28;20078;-38
2022/05/19 02:28:48;;;;;;;61.13;34.15;;;;;;;17.14;92.31;101598.56;4972805;28;20039;-33
2022/05/19 02:31:15;;;;;;;63.83;36.05;;;;;;;17.12;94.48;101606.06;4973033;28;20027;-32
2022/05/19 02:33:40;;;;;;;72.75;39.17;;;;;;;17.06;95.31;101609.59;5032832;22;20058;-30
2022/05/19 02:36:07;;;;;;;68.20;38.67;;;;;;;17.03;95.89;101615.47;4983364;28;20046;-29
2022/05/19 02:38:33;;;;;;;75.50;43.90;;;;;;;17.07;97.42;101608.56;5016899;28;20054;-30
2022/05/19 02:40:58;;;;;;;78.22;44.80;;;;;;;17.04;98.35;101615.25;5010643;28;20280;-31
2022/05/19 02:43:23;;;;;;;76.85;45.42;;;;;;;17.10;99.33;101617.16;5017474;28;20034;-31
2022/05/19 02:45:49;;;;;;;79.22;45.92;;;;;;;17.11;100.00;101627.00;5018280;28;20068;-30
2022/05/19 02:48:15;;;;;;;73.07;45.03;;;;;;;17.10;100.00;101610.88;5017712;28;20045;-30
2022/05/19 02:50:42;;;;;;;78.15;46.47;;;;;;;17.14;100.00;101619.44;4984939;28;20043;-30
2022/05/19 02:53:08;;;;;;;75.15;43.60;;;;;;;17.16;100.00;101607.31;4981568;28;20080;-29
2022/05/19 02:55:33;;;;;;;70.82;43.97;;;;;;;17.30;100.00;101613.63;5003541;28;20037;-32
2022/05/19 02:57:59;;;;;;;68.38;41.83;;;;;;;17.34;100.00;101610.28;5018050;28;20029;-32
2022/05/19 03:00:25;;;;;;;67.78;41.10;;;;;;;17.40;99.90;101616.75;5017590;28;20086;-32
2022/05/19 03:02:53;;;;;;;70.43;41.05;;;;;;;17.46;99.42;101609.69;5017993;28;20045;-32
2022/05/19 03:05:19;;;;;;;;;;;;;;;17.53;99.15;101615.94;4984954;28;20030;-31
2022/05/19 03:07:44;;;;;;;60.60;37.15;;;;;;;17.57;98.88;101621.81;5017761;28;19977;-31
2022/05/19 03:10:10;;;;;;;58.53;35.58;;;;;;;17.65;98.74;101611.53;5017560;28;20022;-32
2022/05/19 03:12:36;;;;;;;62.25;34.60;;;;;;;17.64;98.11;101607.16;5017541;28;20028;-32
2022/05/19 03:15:02;;;;;;;55.95;35.13;;;;;;;17.63;98.14;101600.03;5001102;28;20030;-33
2022/05/19 03:17:27;;;;;;;48.38;31.52;;;;;;;17.67;98.10;101590.41;5017652;28;20060;-31
2022/05/19 03:19:54;;;;;;;52.10;31.85;;;;;;;17.70;97.68;101589.97;5017283;28;20022;-33
2022/05/19 03:22:20;;;;;;;50.75;30.25;;;;;;;17.72;97.53;101582.44;5017116;28;20134;-32
2022/05/19 03:24:45;;;;;;;42.58;27.40;;;;;;;17.72;96.92;101600.63;5016891;28;20022;-32
2022/05/19 03:27:11;;;;;;;42.65;28.35;;;;;;;17.76;97.46;101763.38;5017281;28;20041;-33
2022/05/19 03:29:36;;;;;;;49.72;31.63;;;;;;;17.82;98.22;101794.41;4999600;28;20057;-30
2022/05/19 03:32:02;;;;;;;49.97;33.88;;;;;;;17.85;98.21;101753.19;5017107;28;20050;-31
2022/05/19 03:34:27;;;;;;;44.17;31.67;;;;;;;17.89;97.50;101767.22;5014413;28;20042;-32
2022/05/19 03:36:52;;;;;;;48.63;31.25;;;;;;;17.95;97.23;101741.84;4980530;28;20026;-31
2022/05/19 03:39:18;;;;;;;47.05;30.60;;;;;;;17.95;97.03;101755.47;4997758;28;20058;-29
2022/05/19 03:41:43;;;;;;;47.45;31.10;;;;;;;17.96;97.41;101760.72;4994074;28;20126;-29
2022/05/19 03:44:09;;;;;;;43.67;31.45;;;;;;;17.90;97.80;101757.97;4991819;28;20034;-35
2022/05/19 03:46:35;;;;;;;50.70;34.08;;;;;;;17.87;98.39;101761.94;4962850;28;20053;-32
2022/05/19 03:49:00;;;;;;;49.33;31.52;;;;;;;17.82;98.50;101755.47;4987759;28;20048;-31
2022/05/19 03:51:28;;;;;;;49.40;32.72;;;;;;;17.76;98.48;101738.88;4951654;29;20082;-30
2022/05/19 03:53:54;;;;;;;37.60;27.73;;;;;;;17.71;98.43;101738.66;4983858;28;20046;-31
2022/05/19 03:56:20;;;;;;;32.50;22.23;;;;;;;17.59;96.13;101745.78;4981823;28;20039;-36
2022/05/19 03:58:46;;;;;;;32.05;21.27;;;;;;;17.52;95.69;101702.19;4973292;28;20113;-37
2022/05/19 04:01:11;;;;;;;28.58;19.10;;;;;;;17.47;94.18;101692.97;4971745;28;20031;-37
2022/05/19 04:03:37;;;;;;;30.40;20.10;;;;;;;17.46;94.85;101713.91;4974852;28;20037;-31
2022/05/19 04:06:02;;;;;;;23.95;17.65;;;;;;;17.39;95.40;101728.56;4986254;28;20027;-31
2022/05/19 04:08:27;;;;;;;23.33;17.48;;;;;;;17.31;95.65;101705.91;4986159;28;20035;-31
2022/05/19 04:10:54;;;;;;;25.42;18.35;;;;;;;17.30;95.77;101704.25;4991217;28;20037;-29
2022/05/19 04:13:19;;;;;;;27.67;20.15;;;;;;;17.27;96.56;101718.28;4975378;28;20031;-31
2022/05/19 04:15:45;;;;;;;25.80;21.13;;;;;;;17.23;97.26;101708.00;4976939;28;20038;-32
2022/05/19 04:18:11;;;;;;;28.95;22.65;;;;;;;17.22;98.35;101709.03;4979430;28;20035;-31
2022/05/19 04:20:36;;;;;;;31.58;25.80;;;;;;;17.20;99.51;101703.81;4996508;28;20022;-31
2022/05/19 04:23:03;;;;;;;35.38;26.00;;;;;;;17.19;100.00;101696.66;4979642;28;20026;-31
2022/05/19 04:25:29;;;;;;;31.03;24.00;;;;;;;17.12;99.99;101695.84;4999400;28;20038;-32
2022/05/19 04:27:55;;;;;;;34.42;26.35;;;;;;;17.10;99.81;101692.47;5008200;28;20323;-33
2022/05/19 04:30:21;;;;;;;36.53;26.52;;;;;;;17.10;100.00;101695.19;5016426;28;20038;-31
2022/05/19 04:32:47;;;;;;;37.97;27.75;;;;;;;17.06;100.00;101702.94;4998233;28;20035;-31
2022/05/19 04:35:13;;;;;;;35.45;27.83;;;;;;;17.03;100.00;101694.31;4995362;28;20042;-31
2022/05/19 04:37:39;;;;;;;33.40;27.60;;;;;;;17.01;100.00;101697.28;4995631;28;20046;-32
2022/05/19 04:40:05;;;;;;;31.98;24.85;;;;;;;17.02;100.00;101693.50;4995615;28;20029;-31
2022/05/19 04:42:30;;;;;;;32.50;28.55;;;;;;;17.02;100.00;101689.94;4979615;28;20032;-33
2022/05/19 04:44:56;;;;;;;37.10;29.23;;;;;;;17.02;100.00;101696.22;4997673;28;20046;-33
2022/05/19 04:47:22;;;;;;;35.42;28.90;;;;;;;16.98;100.00;101691.38;4982639;28;20018;-32
2022/05/19 04:49:47;;;;;;;35.83;28.02;;;;;;;16.97;100.00;101687.81;5003181;28;20043;-33
2022/05/19 04:52:12;;;;;;;37.60;27.52;;;;;;;17.00;100.00;101681.13;4995689;28;20058;-32
2022/05/19 04:54:38;;;;;;;32.33;27.30;;;;;;;17.00;100.00;101681.13;4997011;28;20042;-32
2022/05/19 04:57:04;;;;;;;37.55;29.58;;;;;;;16.94;100.00;101687.41;4996035;28;20039;-33
2022/05/19 04:59:30;;;;;;;36.78;29.35;;;;;;;16.91;100.00;101676.94;4997301;28;20119;-33
2022/05/19 05:01:56;;;;;;;35.58;27.77;;;;;;;16.86;100.00;101672.94;4981569;28;20034;-33
2022/05/19 05:04:23;;;;;;;41.53;28.35;;;;;;;16.86;100.00;101658.50;4999411;28;20027;-32
2022/05/19 05:06:48;;;;;;;36.22;27.65;;;;;;;16.93;100.00;101653.06;4989202;28;20046;-33
2022/05/19 05:09:14;;;;;;;34.13;27.48;;;;;;;17.04;100.00;101639.75;5013202;28;20033;-33
2022/05/19 05:11:41;;;;;;;36.90;26.95;;;;;;;17.07;100.00;101624.91;5001568;28;20122;-33
2022/05/19 05:14:06;;;;;;;37.23;26.27;;;;;;;17.14;99.62;101617.59;4998889;28;20033;-34
2022/05/19 05:16:32;;;;;;;35.50;25.45;;;;;;;17.21;98.67;101612.97;4999501;28;20039;-33
2022/05/19 05:18:57;;;;;;;33.72;24.35;;;;;;;17.24;97.79;101589.97;5002246;28;20038;-32
2022/05/19 05:21:23;;;;;;;31.77;23.33;;;;;;;17.28;97.58;101586.63;4999872;28;20042;-33
2022/05/19 05:23:48;;;;;;;33.10;22.02;;;;;;;17.32;96.31;101571.56;4981306;28;20054;-33
2022/05/19 05:26:14;;;;;;;30.20;22.52;;;;;;;17.39;96.17;101570.72;4981396;28;20090;-34
2022/05/19 05:28:39;;;;;;;33.97;23.17;;;;;;;17.44;96.46;101568.22;5000521;28;20030;-33
2022/05/19 05:31:05;;;;;;;28.63;22.63;;;;;;;17.48;95.93;101564.88;4998890;28;20034;-33
2022/05/19 05:33:31;;;;;;;30.88;21.92;;;;;;;17.55;95.34;101557.53;4962266;28;1048365;-33
2022/05/19 05:35:56;;;;;;;28.30;21.77;;;;;;;17.62;95.13;101557.53;4982284;28;20054;-32
2022/05/19 05:38:22;;;;;;;27.52;21.65;;;;;;;17.67;95.12;101557.75;4999896;28;20057;-34
2022/05/19 05:40:50;;;;;;;34.83;21.60;;;;;;;17.66;95.03;101561.50;4999296;28;20046;-34
2022/05/19 05:43:18;;;;;;;29.23;22.40;;;;;;;17.64;95.28;101577.22;5001467;28;20041;-33
2022/05/19 05:45:46;;;;;;;40.03;22.67;;;;;;;17.58;96.10;101575.31;5007316;28;20023;-33
2022/05/19 05:48:12;;;;;;;43.42;24.05;;;;;;;17.58;96.29;101596.25;5018438;28;20034;-33
2022/05/19 05:50:37;;;;;;;37.03;22.40;;;;;;;17.55;96.36;101583.91;4990271;28;20037;-37
2022/05/19 05:53:03;;;;;;;40.47;24.02;;;;;;;17.51;96.44;101588.94;4979163;28;20023;-36
2022/05/19 05:55:29;;;;;;;36.80;23.10;;;;;;;17.54;96.76;101579.53;4978869;28;20030;-31
2022/05/19 05:57:54;;;;;;;34.45;22.15;;;;;;;17.66;97.32;101572.38;4971408;28;20053;-31
2022/05/19 06:00:20;;;;;;;30.08;21.77;;;;;;;17.70;97.97;101583.69;4986341;28;20456;-36
2022/05/19 06:02:46;;;;;;;30.73;23.88;;;;;;;17.67;98.08;101590.41;4996526;28;20022;-35
2022/05/19 06:05:12;;;;;;;35.40;25.45;;;;;;;17.73;98.34;101578.66;4998248;28;20049;-32
2022/05/19 06:07:39;;;;;;;30.10;25.00;;;;;;;17.87;98.74;101575.94;4966262;28;20106;-31
2022/05/19 06:10:05;;;;;;;30.10;24.02;;;;;;;17.92;98.71;101581.59;4999093;28;20058;-31
2022/05/19 06:12:30;;;;;;;32.92;26.25;;;;;;;17.98;98.60;101580.72;4981656;28;20039;-31
2022/05/19 06:14:56;;;;;;;33.95;21.95;;;;;;;17.86;97.75;101575.13;4995826;28;20090;-32
2022/05/19 06:17:25;;;;;;;33.22;22.00;;;;;;;18.04;97.33;101579.91;4989590;28;21997;-31
2022/05/19 06:19:50;;;;;;;30.13;22.33;;;;;;;18.24;97.47;101566.19;4981789;28;20038;-32
2022/05/19 06:22:17;;;;;;;35.95;21.02;;;;;;;18.29;97.21;101571.00;4986103;28;20050;-31
2022/05/19 06:24:43;;;;;;;30.53;20.63;;;;;;;18.38;97.00;101572.47;5009004;28;20041;-32
2022/05/19 06:27:08;;;;;;;32.90;22.60;;;;;;;18.45;97.74;101567.78;4999641;28;20290;-32
2022/05/19 06:29:33;;;;;;;32.90;23.77;;;;;;;18.57;97.75;101574.25;5013523;28;20026;-33
2022/05/19 06:31:59;;;;;;;38.90;25.20;;;;;;;18.63;98.09;101578.81;5004574;28;20166;-32
2022/05/19 06:34:24;;;;;;;34.10;24.90;;;;;;;18.75;98.46;101586.38;4981655;28;20097;-33
2022/05/19 06:36:50;;;;;;;37.92;26.40;;;;;;;18.85;98.76;101598.47;4998970;28;20042;-34
2022/05/19 06:39:16;;;;;;;32.92;24.30;;;;;;;19.04;98.99;101598.56;4960509;28;20101;-33
2022/05/19 06:42:00;;;;;;;40.67;24.90;;;;;;;19.19;98.52;101598.25;4997779;28;20023;-33
2022/05/19 06:44:28;;;;;;;30.85;23.13;;;;;;;19.65;98.32;101597.88;4998477;28;20093;-32
2022/05/19 06:46:54;;;;;;;27.75;21.00;;;;;;;20.12;93.75;101581.06;4998709;28;20015;-33
2022/05/19 06:49:19;;;;;;;25.77;18.92;;;;;;;20.58;89.17;101580.50;4981918;28;20019;-33
2022/05/19 06:51:44;;;;;;;27.83;16.85;;;;;;;20.92;85.18;101578.16;4981338;28;20030;-33
2022/05/19 06:54:10;;;;;;;21.52;16.92;;;;;;;21.09;83.00;101580.22;4981459;28;20034;-31
2022/05/19 06:56:36;;;;;;;20.25;15.13;;;;;;;21.24;81.82;101573.22;4980714;28;20018;-32
2022/05/19 06:59:03;;;;;;;22.70;15.98;;;;;;;21.41;82.06;101583.53;4997079;28;20053;-33
2022/05/19 07:01:28;;;;;;;19.95;15.35;;;;;;;21.64;80.59;101582.69;4997890;28;20069;-34
2022/05/19 07:03:54;;;;;;;20.73;14.77;;;;;;;21.68;77.76;101578.44;4997748;28;20023;-34
2022/05/19 07:06:20;;;;;;;24.05;15.38;;;;;;;21.68;78.33;101584.75;4997838;28;20029;-33
2022/05/19 07:08:45;;;;;;;22.20;15.48;;;;;;;21.68;77.31;101587.47;4961591;28;20047;-34
2022/05/19 07:11:24;;;;;;;25.20;15.98;;;;;;;21.63;77.80;101592.00;4995695;28;20010;-33
2022/05/19 07:13:51;;;;;;;20.35;15.23;;;;;;;21.56;77.06;101594.00;4998289;28;20115;-34
2022/05/19 07:16:17;;;;;;;23.90;14.68;;;;;;;21.58;77.73;101606.41;4998130;28;20010;-32
2022/05/19 07:18:42;;;;;;;23.58;17.20;;;;;;;21.45;78.55;101612.94;4981445;28;20027;-33
2022/05/19 07:21:08;;;;;;;27.92;17.77;;;;;;;21.43;79.96;101614.25;4998314;28;20058;-32
2022/05/19 07:23:34;;;;;;;23.35;17.85;;;;;;;21.64;79.98;101602.75;4997058;28;20078;-32
2022/05/19 07:25:59;;;;;;;20.65;15.75;;;;;;;21.83;79.78;101602.63;4997569;28;20058;-33
2022/05/19 07:28:25;;;;;;;24.77;15.57;;;;;;;21.98;78.54;101600.22;4998049;28;20026;-32
2022/05/19 07:30:50;;;;;;;22.33;16.05;;;;;;;22.02;77.57;101603.31;4997656;28;20042;-33
2022/05/19 07:33:16;;;;;;;19.13;14.88;;;;;;;22.00;77.93;101611.78;4996853;28;20022;-32
2022/05/19 07:35:45;;;;;;;23.10;15.25;;;;;;;21.88;77.06;101610.94;4997827;28;20029;-33
2022/05/19 07:38:10;;;;;;;22.13;16.10;;;;;;;21.73;78.23;101621.56;4997178;28;20031;-32
2022/05/19 07:40:35;;;;;;;27.75;16.60;;;;;;;21.60;78.80;101626.19;4995570;28;20041;-32
2022/05/19 07:45:45;;;;;;;25.02;16.52;;;;;;;21.22;79.50;101618.31;4997356;28;20058;-33
2022/05/19 07:48:10;;;;;;;21.42;15.68;;;;;;;21.03;79.28;101629.34;4980042;28;20019;-32
2022/05/19 07:50:36;;;;;;;22.42;15.27;;;;;;;20.89;80.43;101613.34;4997543;28;20082;-32
2022/05/19 07:53:01;;;;;;;28.88;17.92;;;;;;;20.71;81.82;101623.25;4980232;28;20026;-30
2022/05/19 07:55:26;;;;;;;26.75;16.30;;;;;;;20.53;82.94;101615.03;4997630;28;20047;-32
2022/05/19 07:57:52;;;;;;;25.98;16.60;;;;;;;20.44;83.75;101606.31;4997285;28;20027;-31
2022/05/19 08:00:18;;;;;;;26.50;17.02;;;;;;;20.44;84.52;101602.75;4997395;28;20038;-33
2022/05/19 08:02:43;;;;;;;21.52;17.00;;;;;;;20.50;83.81;101612.78;4979545;28;20027;-33
2022/05/19 08:05:09;;;;;;;22.65;15.65;;;;;;;20.51;84.09;101617.16;4979824;28;20030;-32
2022/05/19 08:07:35;;;;;;;25.35;16.45;;;;;;;20.69;85.52;101619.91;4997196;28;20090;-33
2022/05/19 08:15:37;;;;;;;21.35;15.35;;;;;;;21.67;80.69;101640.63;4982846;28;20061;-33
2022/05/19 08:18:08;;;;;;;22.13;14.00;;;;;;;21.73;80.34;101635.25;4996597;28;20022;-32
2022/05/19 08:20:36;;;;;;;19.63;14.23;;;;;;;21.73;79.48;101629.78;4996991;28;20056;-32
2022/05/19 08:23:01;;;;;;;19.13;14.32;;;;;;;21.61;79.06;101608.66;4996536;28;20062;-33
2022/05/19 08:25:27;;;;;;;20.88;15.10;;;;;;;21.78;80.21;101588.81;4996572;28;20050;-33
2022/05/19 08:27:54;;;;;;;25.90;14.10;;;;;;;22.33;77.95;101591.97;4996566;28;20061;-33
2022/05/19 08:30:20;;;;;;;24.50;13.45;;;;;;;23.54;75.17;101592.81;4997063;28;20034;-32
2022/05/19 08:32:45;;;;;;;17.73;11.68;;;;;;;24.79;68.91;101595.94;4979343;28;20045;-31
2022/05/19 08:35:11;;;;;;;13.13;10.18;;;;;;;25.70;61.32;101588.75;4960374;28;20085;-33
2022/05/19 08:37:36;;;;;;;11.75;9.60;;;;;;;26.30;61.07;101587.47;4987983;28;20042;-34
2022/05/19 08:40:01;;;;;;;16.58;9.73;;;;;;;26.90;60.35;101588.78;4995410;28;20050;-32
2022/05/19 08:42:30;;;;;;;15.93;8.90;;;;;;;26.99;58.71;101582.72;4995082;28;20041;-33
2022/05/19 08:44:57;;;;;;;12.57;9.52;;;;;;;26.87;56.57;101586.59;4996032;28;20018;-32
2022/05/19 08:47:26;;;;;;;;;;;;;;;26.73;56.63;101592.91;4980552;28;20058;-32
2022/05/19 08:50:02;;;;;;;17.10;8.75;;;;;;;27.30;55.96;101594.66;4979074;28;19902;-34
2022/05/19 08:52:39;;;;;;;18.25;7.82;;;;;;;27.84;51.69;101587.75;4996354;28;20037;-34
2022/05/19 08:55:06;;;;;;;15.30;8.05;;;;;;;28.08;52.31;101599.03;4964733;28;20030;-33
2022/05/19 08:57:42;;;;;;;23.53;8.63;;;;;;;28.77;49.32;101600.13;4995793;28;20029;-33
2022/05/19 09:00:11;;;;;;;;;;;;;;;28.97;48.42;101605.53;4979410;28;20289;-31
2022/05/19 09:02:46;;;;;;;12.98;7.93;;;;;;;29.65;48.26;101615.84;4995940;28;19916;-31
2022/05/19 09:05:37;;;;;;;13.25;7.88;;;;;;;30.13;47.54;101623.41;4996470;28;20042;-32
2022/05/19 09:08:10;;;;;;;14.77;8.73;;;;;;;29.09;47.08;101621.81;4994671;28;20058;-32
2022/05/19 09:10:36;;;;;;;12.98;8.80;;;;;;;28.02;47.77;101629.47;4978884;28;20042;-32
2022/05/19 09:13:11;;;;;;;12.63;8.50;;;;;;;26.49;50.79;101624.56;4994704;28;20042;-31
2022/05/19 09:15:37;;;;;;;12.23;7.75;;;;;;;26.15;52.94;101612.25;4978711;28;20023;-30
2022/05/19 09:18:02;;;;;;;11.20;6.55;;;;;;;27.21;52.06;101612.91;4966998;28;20069;-32
2022/05/19 09:20:50;;;;;;;11.30;7.00;;;;;;;27.42;49.83;101603.53;4996074;28;20344;-29
2022/05/19 09:23:16;;;;;;;12.55;6.40;;;;;;;27.75;50.52;101593.81;4978413;28;20033;-32
2022/05/19 09:25:46;;;;;;;12.35;6.35;;;;;;;28.42;50.02;101599.16;4994681;28;20046;-32
2022/05/19 09:28:14;;;;;;;13.32;6.57;;;;;;;29.37;45.20;101603.59;4975136;28;20034;-31
2022/05/19 09:30:55;;;;;;;12.77;6.85;;;;;;;29.90;44.41;101589.78;4975898;28;20011;-34
2022/05/19 09:33:35;;;;;;;15.27;7.10;;;;;;;29.31;44.66;101599.22;4995566;28;20034;-36
2022/05/19 09:36:10;;;;;;;12.30;6.95;;;;;;;29.60;43.52;101606.72;4994997;28;20031;-36
2022/05/19 09:38:38;;;;;;;11.95;6.20;;;;;;;30.27;43.13;101604.94;4964235;28;20022;-32
2022/05/19 09:41:23;;;;;;;17.80;6.32;;;;;;;30.65;40.14;101599.44;4977164;28;20035;-34
2022/05/19 09:43:51;;;;;;;10.68;6.68;;;;;;;30.92;41.46;101589.66;4957491;29;20027;-34
2022/05/19 09:46:17;;;;;;;14.45;8.63;;;;;;;30.37;41.67;101587.31;4978986;28;20059;-32
2022/05/19 09:48:48;;;;;;;14.43;8.10;;;;;;;29.36;44.20;101582.53;4998658;28;20019;-32
2022/05/19 09:51:16;;;;;;;20.17;8.85;;;;;;;27.58;48.30;101580.28;4998417;28;20031;-35
2022/05/19 09:53:55;;;;;;;14.07;8.02;;;;;;;27.00;49.67;101573.34;4998379;28;20022;-34
2022/05/19 09:56:25;;;;;;;16.60;8.98;;;;;;;26.49;51.37;101588.66;4971716;28;20031;-33
2022/05/19 09:58:53;;;;;;;19.00;9.30;;;;;;;26.15;53.07;101595.72;4981678;28;20034;-32
2022/05/19 10:01:29;;;;;;;17.85;9.10;;;;;;;25.42;54.94;101601.81;4960923;29;20023;-33
2022/05/19 10:04:01;;;;;;;16.00;9.20;;;;;;;25.12;56.26;101614.19;4996327;28;20031;-31
2022/05/19 10:06:54;;;;;;;18.13;8.82;;;;;;;24.80;57.31;101614.09;4981529;28;20015;-32
2022/05/19 10:09:31;;;;;;;15.60;8.63;;;;;;;24.13;58.84;101617.94;4998241;28;20107;-32
2022/05/19 10:12:09;;;;;;;17.70;9.80;;;;;;;23.82;60.49;101614.75;4998643;28;20095;-32
2022/05/19 10:14:35;;;;;;;25.20;10.98;;;;;;;23.28;64.31;101586.94;4958334;28;20035;-32
2022/05/19 10:17:37;;;;;;;20.75;10.43;;;;;;;23.11;66.05;101591.56;4969012;28;20014;-33
2022/05/19 10:20:29;;;;;;;21.20;11.35;;;;;;;23.15;68.59;101609.22;4992483;28;20030;-34
2022/05/19 10:23:26;;;;;;;21.25;11.70;;;;;;;23.23;69.20;101622.53;4997539;28;20471;-33
2022/05/19 10:26:15;;;;;;;;;;;;;;;23.25;69.23;101614.91;4980892;28;20045;-32
2022/05/19 10:31:52;;;;;;;22.45;12.73;;;;;;;23.24;69.67;101629.69;4999449;28;20027;-31
2022/05/19 10:34:30;;;;;;;24.08;13.13;;;;;;;23.20;69.89;101632.13;4997343;28;20043;-32
2022/05/19 10:37:17;;;;;;;27.70;13.88;;;;;;;23.05;70.00;101642.81;4997083;28;20031;-32
2022/05/19 10:40:00;;;;;;;;;;;;;;;22.82;71.36;101648.38;4985500;28;20054;-32
2022/05/19 10:42:43;;;;;;;25.45;15.45;;;;;;;22.59;72.26;101677.53;4990963;28;19910;-32
2022/05/19 10:45:34;;;;;;;30.60;15.98;;;;;;;22.43;73.14;101709.28;4962021;29;20046;-32
2022/05/19 10:48:24;;;;;;;34.72;18.13;;;;;;;22.23;74.99;101737.09;4995260;28;20023;-31
2022/05/19 10:51:07;;;;;;;39.40;18.15;;;;;;;21.97;76.03;101740.25;4997584;28;20564;-31
2022/05/19 10:53:42;;;;;;;38.72;19.85;;;;;;;21.68;78.49;101757.34;4980318;28;20014;-33
2022/05/19 10:56:26;;;;;;;40.15;19.80;;;;;;;21.24;80.82;101770.34;4985194;28;20035;-38
2022/05/19 10:58:58;;;;;;;35.85;19.20;;;;;;;20.93;83.03;101770.53;4977751;28;20070;-39
2022/05/19 11:01:37;;;;;;;37.92;22.02;;;;;;;20.67;85.44;101777.13;4957757;28;20122;-37
2022/05/19 11:04:08;;;;;;;38.22;22.45;;;;;;;20.49;87.83;101780.66;4973486;28;20034;-38
2022/05/19 11:06:48;;;;;;;38.33;21.08;;;;;;;20.15;87.67;101785.56;4972817;28;20453;-36
2022/05/19 11:09:31;;;;;;;39.85;20.55;;;;;;;19.93;87.28;101790.56;4946773;29;20031;-38
2022/05/19 11:12:08;;;;;;;32.92;20.15;;;;;;;19.84;88.44;101792.72;4920678;29;20081;-35
2022/05/19 11:14:46;;;;;;;;;;;;;;;19.75;89.31;101780.41;4970149;28;20035;-32
2022/05/19 11:17:48;;;;;;;27.17;17.35;;;;;;;19.52;88.15;101778.19;4980223;28;19910;-32
2022/05/19 11:20:18;;;;;;;25.92;13.82;;;;;;;19.33;85.66;101757.31;4971805;29;20039;-34
2022/05/19 11:22:46;;;;;;;32.47;16.25;;;;;;;19.27;87.14;101765.31;4960291;29;20035;-35
2022/05/19 11:28:20;;;;;;;31.98;14.05;;;;;;;19.12;87.97;101742.09;4981658;28;20053;-35
2022/05/19 11:30:50;;;;;;;21.25;11.70;;;;;;;19.11;88.04;101724.03;4980003;28;20039;-35
2022/05/19 11:33:20;;;;;;;32.17;11.00;;;;;;;19.03;87.97;101750.50;4976806;28;20035;-35
2022/05/19 11:35:50;;;;;;;22.98;8.93;;;;;;;18.92;86.90;101745.72;4986424;28;20038;-36
2022/05/19 11:38:17;;;;;;;23.30;9.18;;;;;;;18.86;87.41;101741.13;4975476;28;20050;-31